createdAt,value
2023-04-09T17:51:15.246Z,4.50
2023-04-09T17:53:43.693Z,4.70
2023-04-09T17:56:19.370Z,4.70
2023-04-09T17:58:58.163Z,5.10
2023-04-09T18:01:33.003Z,4.20
2023-04-09T18:04:02.505Z,4.40
2023-04-09T18:06:39.372Z,5.70
2023-04-09T18:09:07.960Z,5.40
2023-04-09T18:11:39.109Z,4.80
2023-04-09T18:14:11.069Z,5.10
2023-04-09T18:19:26.738Z,5.00
2023-04-09T18:21:59.747Z,6.20
2023-04-09T18:24:37.087Z,5.50
2023-04-09T18:27:12.294Z,5.90
2023-04-09T18:29:48.621Z,5.20
2023-04-09T18:32:19.809Z,5.80
2023-04-09T18:34:49.036Z,6.00
2023-04-09T18:37:19.617Z,5.80
2023-04-09T18:39:49.275Z,6.00
2023-04-09T18:42:20.201Z,5.90
2023-04-09T18:44:50.394Z,5.40
2023-04-09T18:47:19.175Z,5.30
2023-04-09T18:49:52.485Z,6.30
2023-04-09T18:52:24.911Z,6.70
2023-04-09T18:54:58.778Z,6.10
2023-04-09T18:57:28.921Z,6.30
2023-04-09T18:59:58.690Z,5.90
2023-04-09T19:02:30.259Z,6.80
2023-04-09T19:04:59.623Z,7.40
2023-04-09T19:07:28.011Z,7.60
2023-04-09T19:09:56.531Z,8.30
2023-04-09T19:12:27.999Z,9.10
2023-04-09T19:14:57.061Z,9.50
2023-04-09T19:17:28.693Z,8.30
2023-04-09T19:19:59.593Z,8.00
2023-04-09T19:22:28.729Z,7.90
2023-04-09T19:24:57.721Z,7.80
2023-04-09T19:27:26.827Z,9.60
2023-04-09T19:29:56.600Z,8.90
2023-04-09T19:32:26.299Z,7.70
2023-04-09T19:34:54.663Z,9.60
2023-04-09T19:37:27.788Z,8.70
2023-04-09T19:39:56.859Z,9.30
2023-04-09T19:42:28.961Z,8.90
2023-04-09T19:45:00.065Z,7.70
2023-04-09T19:47:29.663Z,8.90
2023-04-09T19:49:58.152Z,9.10
2023-04-09T19:52:27.229Z,8.50
2023-04-09T19:54:56.510Z,8.10
2023-04-09T19:57:26.646Z,8.70
2023-04-09T19:59:55.802Z,9.40
2023-04-09T20:02:25.726Z,8.40
2023-04-09T20:04:54.719Z,8.40
2023-04-09T20:07:23.188Z,8.20
2023-04-09T20:09:53.614Z,9.20
2023-04-09T20:12:23.981Z,9.50
2023-04-09T20:14:52.842Z,9.50
2023-04-09T20:17:25.020Z,8.70
2023-04-09T20:19:55.941Z,7.90
2023-04-09T20:22:24.723Z,9.60
2023-04-09T20:24:55.663Z,9.10
2023-04-09T20:29:53.753Z,8.60
2023-04-09T20:32:22.938Z,9.80
2023-04-09T20:34:51.446Z,9.70
2023-04-09T20:37:19.909Z,8.00
2023-04-09T20:39:49.720Z,8.20
2023-04-09T20:42:18.749Z,8.40
2023-04-09T20:44:47.303Z,9.10
2023-04-09T20:47:16.812Z,8.40
2023-04-09T20:49:46.868Z,8.40
2023-04-09T20:52:16.017Z,7.80
2023-04-09T20:54:45.622Z,8.30
2023-04-09T20:57:14.223Z,8.50
2023-04-09T20:59:43.094Z,7.40
2023-04-09T21:02:15.057Z,8.20
2023-04-09T21:04:43.644Z,8.30
2023-04-09T21:07:13.254Z,8.80
2023-04-09T21:09:42.037Z,7.20
2023-04-09T21:12:11.558Z,7.20
2023-04-09T21:14:40.842Z,7.50
2023-04-09T21:17:10.142Z,8.00
2023-04-09T21:19:38.530Z,8.30
2023-04-09T21:24:38.164Z,6.40
2023-04-09T21:27:07.682Z,8.50
2023-04-09T21:29:36.242Z,7.50
2023-04-09T21:32:05.361Z,7.60
2023-04-09T21:34:33.917Z,7.70
2023-04-09T21:37:03.443Z,8.90
2023-04-09T21:39:32.122Z,8.20
2023-04-09T21:42:00.605Z,8.60
2023-04-09T21:44:29.185Z,8.60
2023-04-09T21:46:57.580Z,7.60
2023-04-09T21:49:26.454Z,6.40
2023-04-09T21:51:55.953Z,7.70
2023-04-09T21:54:25.564Z,8.00
2023-04-09T21:56:53.967Z,7.90
2023-04-09T21:59:27.022Z,7.60
2023-04-09T22:01:56.566Z,7.50
2023-04-09T22:04:25.859Z,7.30
2023-04-09T22:06:55.235Z,7.80
2023-04-09T22:09:23.628Z,7.70
2023-04-09T22:11:53.766Z,8.00
2023-04-09T22:14:23.151Z,6.50
2023-04-09T22:16:52.470Z,7.40
2023-04-09T22:19:20.918Z,7.20
2023-04-09T22:21:50.976Z,8.10
2023-04-09T22:24:26.716Z,6.80
2023-04-09T22:27:01.820Z,7.30
2023-04-09T22:29:30.202Z,6.80
2023-04-09T22:31:58.681Z,9.20
2023-04-09T22:34:27.775Z,7.30
2023-04-09T22:36:56.357Z,7.50
2023-04-09T22:39:25.372Z,6.20
2023-04-09T22:41:54.039Z,7.60
2023-04-09T22:44:22.468Z,6.70
2023-04-09T22:46:53.299Z,8.00
2023-04-09T22:49:23.997Z,7.20
2023-04-09T22:51:53.584Z,7.30
2023-04-09T22:54:21.864Z,7.50
2023-04-09T22:56:50.648Z,8.10
2023-04-09T22:59:23.017Z,8.30
2023-04-09T23:01:53.930Z,7.00
2023-04-09T23:04:25.662Z,7.30
2023-04-09T23:06:54.909Z,7.40
2023-04-09T23:09:23.450Z,7.70
2023-04-09T23:11:52.496Z,8.60
2023-04-09T23:14:20.871Z,7.70
2023-04-09T23:16:50.675Z,7.10
2023-04-09T23:19:23.282Z,7.60
2023-04-09T23:21:52.347Z,8.10
2023-04-09T23:24:20.893Z,8.30
2023-04-09T23:26:50.654Z,7.50
2023-04-09T23:29:19.444Z,7.90
2023-04-09T23:31:48.858Z,7.70
2023-04-09T23:34:17.533Z,9.20
2023-04-09T23:36:46.227Z,8.70
2023-04-09T23:39:17.555Z,8.20
2023-04-09T23:49:19.064Z,9.10
2023-04-09T23:51:53.673Z,9.20
2023-04-09T23:54:23.693Z,8.50
2023-04-09T23:57:04.670Z,8.70
2023-04-09T23:59:36.217Z,9.90
